Time;durP1;ratioP1;P1;durP2;ratioP2;P2;SDS_P1;SDS_P2;PMS_P1;PMS_P2;Temp;Humidity;BMP_temperature;BMP_pressure;BME280_temperature;BME280_humidity;BME280_pressure;Samples;Min_cycle;Max_cycle;Signal;HPM_P1;HPM_P2
2022/05/19 00:00:01;;;;;;;2.60;0.80;;;20.50;56.70;;;;;;5071186;28;20517;-77
2022/05/19 00:02:27;;;;;;;3.00;1.05;;;20.50;56.90;;;;;;5074290;28;20028;-77
2022/05/19 00:04:53;;;;;;;3.90;1.00;;;20.50;57.00;;;;;;5072575;28;20050;-77
2022/05/19 00:07:19;;;;;;;3.58;1.33;;;20.40;57.50;;;;;;5073491;28;20035;-76
2022/05/19 00:09:45;;;;;;;8.23;2.05;;;20.50;57.10;;;;;;5073965;28;20028;-77
2022/05/19 00:12:20;;;;;;;3.25;1.00;;;20.40;57.60;;;;;;5073376;28;20021;-77
2022/05/19 00:14:46;;;;;;;3.38;0.75;;;20.40;57.80;;;;;;5089598;28;20026;-77
2022/05/19 00:17:12;;;;;;;3.85;0.93;;;20.30;58.00;;;;;;5073862;28;20067;-77
2022/05/19 00:19:38;;;;;;;2.30;0.95;;;20.20;58.50;;;;;;5028953;28;1291636;-77
2022/05/19 00:22:04;;;;;;;2.78;1.00;;;20.30;58.50;;;;;;5073465;28;20111;-77
2022/05/19 00:24:30;;;;;;;1.70;0.80;;;20.10;59.30;;;;;;5072867;28;20040;-77
2022/05/19 00:26:56;;;;;;;3.85;1.20;;;19.90;59.50;;;;;;5074810;28;20620;-77
2022/05/19 00:29:22;;;;;;;3.47;1.65;;;20.00;59.50;;;;;;5074550;28;20028;-77
2022/05/19 00:31:47;;;;;;;3.50;1.13;;;20.10;59.60;;;;;;5074080;28;20023;-77
2022/05/19 00:34:13;;;;;;;2.75;1.10;;;19.80;60.50;;;;;;5073205;28;20039;-77
2022/05/19 00:36:39;;;;;;;4.00;1.17;;;19.90;60.10;;;;;;5074548;28;20043;-77
2022/05/19 00:39:05;;;;;;;5.95;0.90;;;19.90;60.10;;;;;;5073927;28;20032;-77
2022/05/19 00:41:32;;;;;;;4.07;1.20;;;19.80;60.30;;;;;;5074165;28;20033;-77
2022/05/19 00:44:01;;;;;;;3.95;1.17;;;19.90;60.30;;;;;;5074000;28;20025;-77
2022/05/19 00:46:36;;;;;;;4.60;1.33;;;19.80;60.40;;;;;;5074233;28;20032;-77
2022/05/19 00:49:10;;;;;;;5.10;1.83;;;19.70;60.90;;;;;;5073784;28;20095;-77
2022/05/19 00:51:43;;;;;;;4.22;1.15;;;19.70;60.90;;;;;;5073669;28;20020;-77
2022/05/19 00:54:15;;;;;;;4.22;1.42;;;19.70;61.40;;;;;;5074445;28;20025;-78
2022/05/19 00:56:59;;;;;;;4.28;1.23;;;19.70;61.30;;;;;;5074165;28;20025;-77
2022/05/19 00:59:41;;;;;;;3.22;0.90;;;19.70;61.60;;;;;;5053900;28;20037;-77
2022/05/19 01:02:10;;;;;;;4.68;1.00;;;19.70;61.60;;;;;;5054090;28;20100;-77
2022/05/19 01:04:50;;;;;;;2.63;1.17;;;19.70;61.90;;;;;;5070120;28;20032;-77
2022/05/19 01:07:19;;;;;;;;;;;19.70;62.00;;;;;;5074359;28;20478;-77
2022/05/19 01:09:46;;;;;;;3.60;0.80;;;19.70;62.30;;;;;;5071336;28;19912;-77
2022/05/19 01:12:12;;;;;;;3.35;1.50;;;19.70;62.30;;;;;;5072437;28;20078;-77
2022/05/19 01:14:39;;;;;;;3.13;0.90;;;19.70;62.80;;;;;;5089360;28;20036;-77
2022/05/19 01:17:06;;;;;;;3.33;0.80;;;19.60;62.80;;;;;;5092117;28;20054;-77
2022/05/19 01:19:37;;;;;;;5.10;1.05;;;19.70;62.60;;;;;;5073651;28;20093;-77
2022/05/19 01:22:08;;;;;;;3.88;0.98;;;19.70;62.90;;;;;;5073243;28;20036;-77
2022/05/19 01:24:47;;;;;;;4.47;0.93;;;19.50;63.30;;;;;;5072921;28;20028;-76
2022/05/19 01:27:13;;;;;;;4.07;1.10;;;19.50;63.20;;;;;;5072299;28;20044;-77
2022/05/19 01:29:39;;;;;;;5.93;1.25;;;19.50;63.50;;;;;;5070734;28;20021;-77
2022/05/19 01:32:05;;;;;;;4.13;1.13;;;19.40;63.60;;;;;;5073454;28;20588;-76
2022/05/19 01:34:33;;;;;;;3.63;1.23;;;19.30;63.80;;;;;;5073236;28;20533;-77
2022/05/19 01:36:59;;;;;;;4.38;1.50;;;19.30;64.10;;;;;;5072946;28;20112;-77
2022/05/19 01:39:31;;;;;;;3.88;0.90;;;19.30;63.80;;;;;;5073432;28;20434;-77
2022/05/19 01:42:13;;;;;;;3.90;1.42;;;19.20;64.10;;;;;;5072914;28;20036;-77
2022/05/19 01:44:38;;;;;;;5.22;1.30;;;19.30;64.20;;;;;;5073348;28;20020;-77
2022/05/19 01:47:12;;;;;;;3.75;1.13;;;19.30;63.80;;;;;;5073316;28;20032;-77
2022/05/19 01:50:01;;;;;;;2.40;1.08;;;19.30;63.80;;;;;;5072678;28;20040;-76
2022/05/19 01:52:48;;;;;;;6.20;1.77;;;19.30;64.10;;;;;;5073547;28;20107;-77
2022/05/19 01:55:57;;;;;;;9.23;1.90;;;19.30;64.00;;;;;;5071538;28;20031;-77
2022/05/19 01:58:43;;;;;;;4.78;1.50;;;19.20;64.00;;;;;;5071912;28;20044;-77
2022/05/19 02:01:10;;;;;;;4.40;1.58;;;19.30;63.90;;;;;;5073043;28;20098;-76
2022/05/19 02:03:44;;;;;;;8.27;1.92;;;19.30;64.10;;;;;;5071721;28;20456;-76
2022/05/19 02:06:15;;;;;;;7.28;1.45;;;19.30;63.80;;;;;;5072474;28;20080;-77
2022/05/19 02:08:44;;;;;;;4.20;1.20;;;19.30;63.30;;;;;;5072996;28;20040;-77
2022/05/19 02:11:15;;;;;;;4.85;1.15;;;19.40;63.40;;;;;;5073165;28;20438;-76
2022/05/19 02:13:41;;;;;;;5.47;1.02;;;19.30;63.60;;;;;;5080340;28;20024;-77
2022/05/19 02:16:13;;;;;;;3.22;1.00;;;19.30;63.50;;;;;;5072364;28;20069;-77
2022/05/19 02:18:40;;;;;;;5.55;1.23;;;19.40;63.50;;;;;;5071592;28;20028;-77
2022/05/19 02:21:07;;;;;;;2.67;0.88;;;19.40;63.70;;;;;;5072557;28;20045;-77
2022/05/19 02:23:34;;;;;;;6.20;1.30;;;19.30;64.00;;;;;;5071495;28;20579;-77
2022/05/19 02:26:00;;;;;;;4.38;1.20;;;19.30;63.80;;;;;;5070410;28;20034;-77
2022/05/19 02:28:50;;;;;;;5.45;1.30;;;19.30;63.70;;;;;;5071690;28;20029;-77
2022/05/19 02:31:16;;;;;;;3.30;1.17;;;19.30;64.20;;;;;;5071278;28;20025;-76
2022/05/19 02:33:42;;;;;;;3.55;1.08;;;19.20;63.90;;;;;;5071741;28;20028;-77
2022/05/19 02:36:10;;;;;;;3.00;0.98;;;19.20;63.80;;;;;;5072390;28;20239;-77
2022/05/19 02:38:36;;;;;;;5.75;2.05;;;19.20;64.00;;;;;;5072744;28;20116;-77
2022/05/19 02:41:03;;;;;;;2.58;1.02;;;19.20;64.50;;;;;;5072295;28;20036;-77
2022/05/19 02:43:28;;;;;;;4.57;1.10;;;19.10;64.30;;;;;;5072830;28;20039;-77
2022/05/19 02:45:54;;;;;;;8.32;1.58;;;19.10;63.80;;;;;;5071631;28;20060;-77
2022/05/19 02:48:20;;;;;;;2.78;1.50;;;19.10;64.20;;;;;;5072694;28;20028;-77
2022/05/19 02:50:48;;;;;;;6.53;1.05;;;19.00;64.30;;;;;;5071879;28;20063;-77
2022/05/19 02:53:14;;;;;;;5.22;1.13;;;19.00;64.60;;;;;;5071273;28;20116;-77
2022/05/19 02:55:41;;;;;;;3.00;1.45;;;18.90;65.10;;;;;;5072659;28;20024;-77
2022/05/19 02:58:07;;;;;;;4.00;1.50;;;18.90;64.90;;;;;;5069942;28;20084;-77
2022/05/19 03:00:34;;;;;;;3.22;1.40;;;18.90;65.10;;;;;;5072526;28;20049;-77
2022/05/19 03:03:00;;;;;;;6.13;1.30;;;18.80;65.20;;;;;;5070437;28;20509;-77
2022/05/19 03:05:29;;;;;;;4.25;1.27;;;18.80;65.40;;;;;;5072765;28;20020;-77
2022/05/19 03:07:55;;;;;;;3.53;1.20;;;18.80;65.70;;;;;;5070012;28;20048;-77
2022/05/19 03:10:22;;;;;;;5.32;2.00;;;18.80;66.00;;;;;;5072405;28;20032;-77
2022/05/19 03:12:49;;;;;;;4.47;1.60;;;18.70;66.20;;;;;;5073948;28;20115;-77
2022/05/19 03:15:15;;;;;;;5.30;1.40;;;18.60;66.30;;;;;;5095200;28;20551;-76
2022/05/19 03:17:41;;;;;;;5.85;1.48;;;18.60;66.50;;;;;;5076961;28;20032;-77
2022/05/19 03:20:09;;;;;;;3.92;1.33;;;18.60;66.70;;;;;;5075722;28;20163;-76
2022/05/19 03:22:35;;;;;;;3.97;1.70;;;18.60;66.60;;;;;;5074115;28;20124;-77
2022/05/19 03:25:01;;;;;;;5.57;1.70;;;18.60;66.60;;;;;;5074561;28;20056;-76
2022/05/19 03:27:27;;;;;;;5.40;1.58;;;18.60;66.40;;;;;;5075345;28;20044;-77
2022/05/19 03:29:53;;;;;;;6.10;1.63;;;18.60;66.40;;;;;;5074175;28;20041;-76
2022/05/19 03:32:19;;;;;;;4.38;1.40;;;18.60;66.60;;;;;;5075620;28;20070;-76
2022/05/19 03:34:45;;;;;;;2.25;1.33;;;18.60;66.50;;;;;;5073071;28;20028;-77
2022/05/19 03:37:11;;;;;;;5.18;1.92;;;18.60;67.10;;;;;;5075786;28;20036;-77
2022/05/19 03:39:37;;;;;;;4.82;1.80;;;18.60;67.30;;;;;;5075717;28;20036;-77
2022/05/19 03:42:05;;;;;;;3.40;1.50;;;18.60;67.40;;;;;;5075138;28;20032;-77
2022/05/19 03:44:31;;;;;;;4.40;1.60;;;18.50;67.50;;;;;;5075828;28;20029;-76
2022/05/19 03:46:56;;;;;;;5.43;1.67;;;18.50;68.20;;;;;;5074732;28;20394;-77
2022/05/19 03:49:22;;;;;;;5.68;1.65;;;18.50;68.50;;;;;;5075569;28;20020;-77
2022/05/19 03:51:48;;;;;;;4.28;1.52;;;18.60;68.30;;;;;;5074981;28;20031;-77
2022/05/19 03:54:14;;;;;;;4.80;1.85;;;18.50;68.40;;;;;;5075418;28;20183;-77
2022/05/19 03:56:40;;;;;;;9.82;2.13;;;18.50;68.50;;;;;;5073932;28;20104;-77
2022/05/19 03:59:06;;;;;;;4.05;1.70;;;18.50;68.40;;;;;;5073566;28;20067;-77
2022/05/19 04:01:32;;;;;;;4.65;1.90;;;18.50;68.10;;;;;;5053935;28;20025;-76
2022/05/19 04:03:59;;;;;;;4.65;1.63;;;18.60;68.20;;;;;;5055252;28;20036;-77
2022/05/19 04:06:25;;;;;;;4.70;1.58;;;18.60;68.40;;;;;;5055013;28;20027;-76
2022/05/19 04:08:51;;;;;;;5.38;2.25;;;18.60;68.00;;;;;;5074983;28;20036;-76
2022/05/19 04:11:17;;;;;;;7.03;1.63;;;18.60;68.40;;;;;;5075121;28;20109;-77
2022/05/19 04:13:43;;;;;;;5.25;1.73;;;18.60;68.10;;;;;;5079778;28;20024;-76
2022/05/19 04:16:09;;;;;;;5.10;1.92;;;18.60;67.80;;;;;;5075266;28;20020;-76
2022/05/19 04:18:35;;;;;;;7.43;1.90;;;18.50;67.90;;;;;;5072703;28;20056;-76
2022/05/19 04:21:01;;;;;;;2.95;1.70;;;18.50;68.60;;;;;;5074686;28;20045;-76
2022/05/19 04:23:27;;;;;;;5.75;2.15;;;18.40;69.00;;;;;;5074252;28;20093;-76
2022/05/19 04:25:53;;;;;;;4.15;2.10;;;18.50;68.90;;;;;;5074170;28;20076;-77
2022/05/19 04:28:18;;;;;;;4.35;1.98;;;18.50;69.10;;;;;;5073982;28;20031;-76
2022/05/19 04:30:44;;;;;;;5.65;2.22;;;18.50;69.70;;;;;;5073343;28;20028;-76
2022/05/19 04:33:10;;;;;;;4.57;2.05;;;18.40;70.20;;;;;;5074690;28;20028;-76
2022/05/19 04:35:37;;;;;;;7.20;2.47;;;18.30;70.60;;;;;;5074154;28;20028;-76
2022/05/19 04:38:11;;;;;;;8.00;2.70;;;18.10;71.80;;;;;;5074477;28;20021;-76
2022/05/19 04:40:59;;;;;;;9.52;3.15;;;18.20;75.30;;;;;;5072934;28;20047;-76
2022/05/19 04:43:25;;;;;;;9.27;2.83;;;18.10;73.30;;;;;;5062188;28;20029;-77
2022/05/19 04:45:52;;;;;;;12.25;3.30;;;18.00;73.30;;;;;;5062864;28;20055;-76
2022/05/19 04:48:19;;;;;;;6.20;2.72;;;18.10;73.20;;;;;;5073107;28;20071;-77
2022/05/19 04:50:45;;;;;;;9.85;3.03;;;18.20;72.50;;;;;;5072652;28;20029;-77
2022/05/19 04:53:11;;;;;;;8.07;3.00;;;18.10;73.00;;;;;;5069100;28;20031;-75
2022/05/19 04:55:38;;;;;;;8.15;3.20;;;18.20;72.70;;;;;;5069616;28;20094;-77
2022/05/19 04:58:05;;;;;;;6.93;2.83;;;18.20;72.60;;;;;;5054587;28;20028;-77
2022/05/19 05:00:31;;;;;;;9.07;3.83;;;18.20;72.70;;;;;;5052695;28;20044;-77
2022/05/19 05:02:56;;;;;;;10.85;3.22;;;18.20;72.60;;;;;;5062213;28;20029;-77
2022/05/19 05:05:23;;;;;;;8.90;3.72;;;18.20;72.90;;;;;;5067561;28;20029;-77
2022/05/19 05:07:49;;;;;;;5.70;2.95;;;18.10;72.90;;;;;;5072288;28;20029;-81
2022/05/19 05:10:14;;;;;;;9.68;3.17;;;18.00;73.30;;;;;;5066235;28;20035;-78
2022/05/19 05:12:40;;;;;;;7.32;2.47;;;17.90;73.90;;;;;;5062001;28;20045;-80
2022/05/19 05:15:07;;;;;;;11.55;3.70;;;17.80;73.90;;;;;;5070970;28;20439;-77
2022/05/19 05:17:33;;;;;;;16.08;3.67;;;17.80;74.10;;;;;;5070746;28;20043;-76
2022/05/19 05:19:59;;;;;;;7.63;2.95;;;17.70;75.40;;;;;;5072963;28;20048;-76
2022/05/19 05:22:24;;;;;;;11.65;3.95;;;17.70;76.00;;;;;;5071643;28;20097;-75
2022/05/19 05:24:50;;;;;;;9.55;3.28;;;17.70;76.30;;;;;;5053062;28;20395;-75
2022/05/19 05:27:16;;;;;;;10.02;3.53;;;17.60;82.90;;;;;;5070507;28;20032;-75
2022/05/19 05:29:41;;;;;;;8.55;3.35;;;17.50;81.10;;;;;;5067509;28;20108;-75
2022/05/19 05:32:07;;;;;;;10.02;3.28;;;17.50;78.70;;;;;;5062988;28;20491;-75
2022/05/19 05:34:34;;;;;;;13.57;4.07;;;17.60;77.10;;;;;;5060647;28;20033;-75
2022/05/19 05:37:00;;;;;;;8.70;3.75;;;17.60;76.20;;;;;;5061409;28;20036;-74
2022/05/19 05:39:26;;;;;;;14.05;3.63;;;17.60;76.30;;;;;;5068218;28;20383;-84
2022/05/19 05:41:51;;;;;;;8.75;3.13;;;17.70;75.70;;;;;;5068754;28;20280;-83
2022/05/19 05:44:17;;;;;;;13.48;3.10;;;17.70;75.70;;;;;;5073189;28;20029;-83
2022/05/19 05:46:44;;;;;;;8.00;3.08;;;17.60;75.70;;;;;;5072589;28;20139;-84
2022/05/19 05:49:10;;;;;;;7.53;2.83;;;17.60;75.60;;;;;;5071566;28;20031;-84
2022/05/19 05:51:36;;;;;;;7.43;2.58;;;17.50;75.50;;;;;;5072280;28;20033;-85
2022/05/19 05:54:01;;;;;;;7.30;3.13;;;17.50;75.70;;;;;;5073565;28;20113;-84
2022/05/19 05:56:27;;;;;;;7.32;3.10;;;17.50;76.30;;;;;;5073148;28;20103;-84
2022/05/19 05:58:53;;;;;;;7.45;3.17;;;17.40;76.20;;;;;;5073022;28;20028;-84
2022/05/19 06:01:20;;;;;;;10.02;2.72;;;17.50;76.30;;;;;;5072541;28;20115;-84
2022/05/19 06:03:47;;;;;;;9.65;3.40;;;17.50;76.10;;;;;;5073202;28;20028;-84
2022/05/19 06:06:13;;;;;;;7.78;3.53;;;17.60;76.10;;;;;;5072628;28;20040;-85
2022/05/19 06:08:39;;;;;;;8.93;3.13;;;17.70;75.90;;;;;;5072874;28;20565;-85
2022/05/19 06:11:06;;;;;;;5.72;2.78;;;17.60;76.20;;;;;;5072992;28;20129;-84
2022/05/19 06:13:32;;;;;;;6.47;2.83;;;17.60;75.30;;;;;;5079382;28;20020;-84
2022/05/19 06:15:58;;;;;;;10.82;3.25;;;17.70;75.30;;;;;;5076073;28;20475;-84
2022/05/19 06:18:25;;;;;;;11.45;3.15;;;17.70;75.50;;;;;;5072348;28;20028;-85
2022/05/19 06:20:51;;;;;;;8.23;3.22;;;17.70;75.40;;;;;;5073085;28;20080;-85
2022/05/19 06:23:18;;;;;;;15.77;3.78;;;17.80;74.90;;;;;;5073400;28;20099;-85
2022/05/19 06:25:45;;;;;;;8.57;3.08;;;17.90;74.50;;;;;;5073400;28;20132;-85
2022/05/19 06:28:11;;;;;;;10.40;2.95;;;17.90;74.40;;;;;;5071940;28;20046;-85
2022/05/19 06:30:38;;;;;;;5.47;3.03;;;17.90;75.50;;;;;;5071731;28;20372;-85
2022/05/19 06:33:05;;;;;;;12.00;3.33;;;17.80;75.30;;;;;;5072934;28;20056;-85
2022/05/19 06:35:32;;;;;;;9.18;3.40;;;17.70;75.60;;;;;;5072656;28;20031;-85
2022/05/19 06:37:59;;;;;;;8.10;3.08;;;17.70;75.70;;;;;;5073196;28;20016;-84
2022/05/19 06:40:26;;;;;;;11.57;3.47;;;17.70;75.80;;;;;;5070537;28;20029;-85
2022/05/19 06:42:52;;;;;;;8.40;3.60;;;17.80;75.40;;;;;;5073141;28;20028;-86
2022/05/19 06:45:22;;;;;;;6.60;2.78;;;17.80;75.00;;;;;;5072078;28;20025;-86
2022/05/19 06:47:51;;;;;;;9.95;2.90;;;17.80;74.70;;;;;;5074495;28;20052;-85
2022/05/19 06:50:19;;;;;;;5.40;2.60;;;17.70;74.80;;;;;;5076725;28;20056;-85
2022/05/19 06:53:04;;;;;;;8.85;3.00;;;17.80;74.80;;;;;;5076246;28;20286;-86
2022/05/19 06:55:36;;;;;;;8.00;3.42;;;17.80;74.50;;;;;;5076712;28;20028;-86
2022/05/19 06:58:03;;;;;;;8.35;2.80;;;18.00;74.00;;;;;;5074815;28;20528;-85
2022/05/19 07:00:29;;;;;;;7.60;2.90;;;18.00;74.10;;;;;;5076634;28;20090;-85
2022/05/19 07:02:57;;;;;;;6.03;2.58;;;18.10;74.00;;;;;;5076312;28;20056;-86
2022/05/19 07:05:28;;;;;;;10.60;3.40;;;18.10;74.10;;;;;;5075885;28;20033;-86
2022/05/19 07:07:54;;;;;;;9.40;3.33;;;18.10;73.70;;;;;;5076183;28;20094;-87
2022/05/19 07:10:22;;;;;;;8.40;3.38;;;18.10;73.50;;;;;;5076143;28;20032;-85
2022/05/19 07:12:48;;;;;;;8.48;2.90;;;18.10;74.20;;;;;;5076665;28;20418;-85
2022/05/19 07:15:16;;;;;;;6.32;3.05;;;18.00;74.70;;;;;;5096847;28;20032;-84
2022/05/19 07:17:42;;;;;;;7.40;2.97;;;17.90;75.40;;;;;;5078107;28;20028;-87
2022/05/19 07:22:53;;;;;;;6.78;2.58;;;18.30;73.90;;;;;;5076313;28;20881;-86
2022/05/19 07:25:19;;;;;;;8.70;3.58;;;18.30;73.30;;;;;;5075509;28;20020;-85
2022/05/19 07:27:45;;;;;;;10.85;3.00;;;18.30;73.60;;;;;;5074678;28;20441;-85
2022/05/19 07:30:11;;;;;;;7.95;2.70;;;18.50;72.90;;;;;;5074028;28;20223;-85
2022/05/19 07:32:39;;;;;;;7.45;2.80;;;18.70;72.90;;;;;;5076284;28;20032;-87
2022/05/19 07:35:06;;;;;;;6.57;2.55;;;18.90;72.40;;;;;;5075408;28;20028;-86
2022/05/19 07:37:32;;;;;;;6.60;2.97;;;19.20;72.40;;;;;;5075926;28;20021;-86
2022/05/19 07:39:58;;;;;;;7.45;2.25;;;21.40;67.90;;;;;;5074924;28;20091;-86
2022/05/19 07:42:25;;;;;;;9.93;2.50;;;22.60;61.80;;;;;;5074625;28;20559;-86
2022/05/19 07:44:51;;;;;;;5.78;2.22;;;22.10;62.10;;;;;;5075186;28;20036;-86
2022/05/19 07:47:17;;;;;;;11.55;2.42;;;21.60;63.90;;;;;;5075733;28;20032;-86
2022/05/19 07:49:43;;;;;;;7.43;2.15;;;21.20;64.80;;;;;;5074919;28;20094;-86
2022/05/19 07:52:10;;;;;;;7.25;2.42;;;20.80;65.00;;;;;;5074484;28;20021;-87
2022/05/19 07:54:36;;;;;;;6.13;2.22;;;20.50;66.50;;;;;;5075057;28;20024;-87
2022/05/19 07:57:03;;;;;;;4.57;2.17;;;20.30;68.10;;;;;;5075385;28;20035;-86
2022/05/19 07:59:30;;;;;;;5.95;2.20;;;20.10;68.40;;;;;;5072665;28;20458;-86
2022/05/19 08:01:56;;;;;;;4.47;2.20;;;19.90;68.70;;;;;;5075341;28;20532;-86
2022/05/19 08:04:23;;;;;;;7.85;1.85;;;19.80;69.30;;;;;;5075393;28;20025;-85
2022/05/19 08:06:49;;;;;;;5.95;1.95;;;19.90;69.00;;;;;;5073717;28;20037;-86
2022/05/19 08:12:00;;;;;;;5.20;2.15;;;20.10;68.80;;;;;;5075007;28;20613;-86
2022/05/19 08:17:11;;;;;;;6.72;2.00;;;20.30;68.10;;;;;;5095425;28;20035;-85
2022/05/19 08:19:38;;;;;;;5.05;2.13;;;20.70;67.70;;;;;;5076862;28;20070;-86
2022/05/19 08:22:05;;;;;;;6.80;2.05;;;20.80;67.80;;;;;;5075124;28;20028;-86
2022/05/19 08:24:30;;;;;;;5.97;1.67;;;20.90;66.30;;;;;;5075078;28;20100;-86
2022/05/19 08:26:57;;;;;;;4.35;2.10;;;21.20;66.50;;;;;;5074375;28;20117;-86
2022/05/19 08:29:23;;;;;;;5.70;1.92;;;21.80;65.10;;;;;;5074826;28;20017;-86
2022/05/19 08:31:49;;;;;;;4.15;2.08;;;22.00;63.60;;;;;;5073453;28;20029;-85
2022/05/19 08:34:15;;;;;;;6.13;2.10;;;23.20;62.60;;;;;;5073214;28;20027;-85
2022/05/19 08:36:41;;;;;;;3.15;1.80;;;23.80;59.80;;;;;;5074142;28;20032;-85
2022/05/19 08:39:07;;;;;;;4.68;1.85;;;24.30;56.80;;;;;;5074758;28;20506;-84
2022/05/19 08:41:54;;;;;;;3.67;1.38;;;27.20;50.90;;;;;;5073415;28;20032;-84
2022/05/19 08:44:44;;;;;;;3.53;1.40;;;27.80;47.30;;;;;;5074058;28;20029;-84
2022/05/19 08:47:12;;;;;;;3.08;1.08;;;26.90;49.50;;;;;;5073091;28;20082;-84
2022/05/19 08:49:40;;;;;;;7.13;1.30;;;25.80;51.60;;;;;;5074552;28;20114;-84
2022/05/19 08:52:16;;;;;;;5.82;1.15;;;25.80;52.70;;;;;;5073553;28;20083;-84
2022/05/19 08:54:45;;;;;;;7.30;1.45;;;28.00;48.90;;;;;;5074405;28;20511;-84
2022/05/19 08:57:35;;;;;;;3.15;1.00;;;29.70;45.30;;;;;;5073792;28;20139;-84
2022/05/19 09:00:32;;;;;;;3.70;1.05;;;31.10;39.80;;;;;;5071691;28;20170;-85
2022/05/19 09:03:29;;;;;;;8.57;1.17;;;32.10;40.50;;;;;;5074479;28;20021;-84
2022/05/19 09:06:16;;;;;;;3.65;1.00;;;32.30;38.90;;;;;;5074098;28;20074;-84
2022/05/19 09:09:05;;;;;;;3.53;1.10;;;31.10;38.70;;;;;;5072523;28;20040;-84
2022/05/19 09:11:44;;;;;;;5.22;1.10;;;29.30;41.30;;;;;;5072949;28;20017;-84
2022/05/19 09:14:27;;;;;;;;;;;27.50;43.70;;;;;;5076132;28;20029;-84
2022/05/19 09:16:59;;;;;;;3.83;1.08;;;27.60;45.60;;;;;;5054059;28;20378;-85
2022/05/19 09:19:29;;;;;;;4.45;1.20;;;29.60;43.60;;;;;;5072612;28;20587;-85
2022/05/19 09:22:11;;;;;;;3.45;1.00;;;30.90;41.10;;;;;;5073857;28;20032;-85
2022/05/19 09:24:37;;;;;;;2.58;1.08;;;31.80;39.50;;;;;;5073325;28;20043;-86
2022/05/19 09:27:04;;;;;;;6.00;1.30;;;32.10;36.70;;;;;;5071902;28;20113;-86
2022/05/19 09:29:40;;;;;;;3.38;1.10;;;32.30;37.20;;;;;;5073546;28;20056;-85
2022/05/19 09:32:26;;;;;;;5.88;1.20;;;32.50;37.10;;;;;;5073037;28;20081;-86
2022/05/19 09:35:00;;;;;;;2.70;1.10;;;33.00;37.30;;;;;;5073659;28;20494;-86
2022/05/19 09:37:44;;;;;;;4.10;0.88;;;32.40;36.40;;;;;;5073259;28;20035;-86
2022/05/19 09:40:10;;;;;;;3.35;1.05;;;31.00;39.20;;;;;;5073523;28;20048;-85
2022/05/19 09:42:49;;;;;;;3.33;1.23;;;29.90;40.70;;;;;;5073041;28;20032;-85
2022/05/19 09:45:15;;;;;;;4.72;1.55;;;29.20;43.00;;;;;;5072511;28;20054;-86
2022/05/19 09:47:45;;;;;;;2.63;1.30;;;28.70;44.40;;;;;;5073420;28;20033;-86
2022/05/19 09:50:22;;;;;;;7.85;1.55;;;29.10;43.90;;;;;;5072764;28;20435;-86
2022/05/19 09:52:48;;;;;;;5.10;1.65;;;29.20;43.30;;;;;;5053624;28;20029;-86
2022/05/19 09:55:19;;;;;;;2.83;1.48;;;30.30;39.90;;;;;;5053602;28;20110;-86
2022/05/19 09:57:49;;;;;;;3.70;0.93;;;30.70;39.30;;;;;;5065951;28;20059;-85
2022/05/19 10:00:30;;;;;;;4.72;1.88;;;31.80;37.50;;;;;;5073469;28;20032;-86
2022/05/19 10:02:58;;;;;;;2.83;1.00;;;32.80;33.60;;;;;;5072808;28;20694;-86
2022/05/19 10:05:36;;;;;;;6.00;1.33;;;33.30;34.00;;;;;;5072133;28;20029;-86
2022/05/19 10:08:06;;;;;;;3.20;1.07;;;33.70;31.40;;;;;;5072469;28;20028;-86
2022/05/19 10:10:43;;;;;;;3.95;1.55;;;33.90;32.40;;;;;;5073310;28;20021;-86
2022/05/19 10:13:12;;;;;;;4.72;1.40;;;34.00;34.20;;;;;;5074142;28;20055;-85
2022/05/19 10:15:40;;;;;;;9.10;1.98;;;33.30;34.20;;;;;;5093622;28;20031;-86
2022/05/19 10:18:28;;;;;;;5.20;1.25;;;32.40;36.20;;;;;;5087998;28;20566;-85
2022/05/19 10:21:15;;;;;;;4.60;1.25;;;31.10;37.60;;;;;;5072997;28;20060;-85
2022/05/19 10:24:03;;;;;;;2.60;1.40;;;31.80;37.50;;;;;;5076842;28;20609;-85
2022/05/19 10:26:44;;;;;;;;;;;32.30;35.80;;;;;;5066636;28;20056;-85
2022/05/19 10:32:48;;;;;;;4.05;1.35;;;32.40;36.80;;;;;;5054581;28;20048;-85
2022/05/19 10:35:25;;;;;;;4.57;0.95;;;31.60;36.80;;;;;;5076591;28;20107;-84
2022/05/19 10:37:56;;;;;;;2.72;1.08;;;30.60;37.30;;;;;;5077065;28;20146;-85
2022/05/19 10:40:29;;;;;;;3.65;1.58;;;29.90;40.10;;;;;;5076204;28;20060;-85
2022/05/19 10:43:16;;;;;;;4.38;1.15;;;29.20;40.80;;;;;;5076772;28;20013;-85
2022/05/19 10:45:47;;;;;;;3.72;1.38;;;28.80;40.60;;;;;;5076207;28;20025;-85
2022/05/19 10:48:44;;;;;;;8.48;1.88;;;28.60;42.90;;;;;;5076682;28;20024;-85
2022/05/19 10:51:22;;;;;;;4.55;1.30;;;28.50;42.00;;;;;;5077108;28;20024;-84
2022/05/19 10:54:03;;;;;;;3.97;1.33;;;28.60;42.10;;;;;;5076455;28;20048;-85
2022/05/19 10:56:58;;;;;;;5.78;1.40;;;28.30;42.80;;;;;;5076853;28;20054;-85
2022/05/19 10:59:51;;;;;;;2.72;1.40;;;28.20;41.80;;;;;;5076701;28;20478;-84
2022/05/19 11:02:39;;;;;;;6.03;1.45;;;28.10;42.90;;;;;;5075474;28;20028;-84
2022/05/19 11:05:31;;;;;;;4.82;1.45;;;28.10;42.10;;;;;;5075851;28;20066;-84
2022/05/19 11:08:02;;;;;;;4.28;1.40;;;27.90;41.50;;;;;;5076077;28;20059;-83
2022/05/19 11:11:09;;;;;;;8.07;1.48;;;27.80;42.20;;;;;;5076265;28;20029;-84
2022/05/19 11:14:00;;;;;;;4.47;1.33;;;27.80;44.50;;;;;;5081002;28;20055;-84
2022/05/19 11:16:41;;;;;;;5.10;1.40;;;28.00;44.50;;;;;;5096578;28;20032;-84
2022/05/19 11:19:12;;;;;;;4.40;1.10;;;28.10;42.50;;;;;;5082276;28;20046;-84
2022/05/19 11:22:12;;;;;;;4.10;1.10;;;28.00;42.80;;;;;;5076248;28;20036;-84
2022/05/19 11:27:38;;;;;;;4.90;1.10;;;27.90;40.40;;;;;;5075695;28;20102;-84
2022/05/19 11:30:09;;;;;;;6.82;0.90;;;27.60;40.40;;;;;;5074826;28;20028;-83
2022/05/19 11:32:37;;;;;;;2.05;0.60;;;27.50;40.60;;;;;;5076053;28;20788;-83
2022/05/19 11:35:15;;;;;;;3.95;1.48;;;27.60;40.70;;;;;;5075021;28;20449;-84
2022/05/19 11:37:57;;;;;;;3.80;1.13;;;27.60;40.40;;;;;;5074512;28;20088;-84
2022/05/19 11:40:30;;;;;;;3.95;1.45;;;27.40;40.40;;;;;;5075231;28;20029;-84
2022/05/19 11:42:59;;;;;;;5.63;1.17;;;27.70;42.50;;;;;;5076031;28;20085;-83
2022/05/19 11:45:46;;;;;;;3.22;1.13;;;27.30;42.30;;;;;;5076002;28;20017;-83
2022/05/19 11:57:47;;;;;;;3.83;1.40;;;27.40;43.10;;;;;;5062177;28;20105;-84
2022/05/19 12:00:20;;;;;;;4.55;1.73;;;27.40;43.20;;;;;;5073890;28;20032;-85
2022/05/19 12:02:53;;;;;;;7.38;1.63;;;27.40;42.40;;;;;;5073995;28;20016;-84
2022/05/19 12:05:33;;;;;;;5.45;1.30;;;27.40;42.60;;;;;;5074903;28;20025;-84
2022/05/19 12:08:09;;;;;;;3.63;1.20;;;27.60;41.90;;;;;;5073963;28;20025;-84
2022/05/19 12:10:40;;;;;;;2.92;1.20;;;27.80;42.00;;;;;;5075572;28;20040;-84
2022/05/19 12:13:07;;;;;;;5.40;1.30;;;27.70;41.00;;;;;;5077243;28;20032;-84
2022/05/19 12:15:51;;;;;;;3.85;1.35;;;27.60;40.40;;;;;;5094304;28;20055;-84
2022/05/19 12:18:22;;;;;;;4.18;1.25;;;27.70;39.80;;;;;;5088813;28;20398;-84
2022/05/19 12:21:16;;;;;;;2.33;1.02;;;27.70;41.70;;;;;;5074441;28;20099;-84
2022/05/19 12:23:43;;;;;;;4.45;1.60;;;27.90;41.20;;;;;;5075348;28;20024;-83
2022/05/19 12:26:17;;;;;;;4.35;1.63;;;27.90;40.50;;;;;;5075072;28;20080;-84
2022/05/19 12:29:13;;;;;;;5.43;1.30;;;27.80;40.30;;;;;;5073732;28;20510;-84
2022/05/19 12:31:59;;;;;;;5.25;1.33;;;27.90;42.10;;;;;;5074724;28;20036;-84
2022/05/19 12:34:33;;;;;;;4.97;1.67;;;27.80;42.70;;;;;;5074680;28;20125;-83
2022/05/19 12:37:38;;;;;;;4.32;1.42;;;27.70;42.30;;;;;;5074674;28;20032;-83
2022/05/19 12:40:22;;;;;;;5.53;1.80;;;27.40;41.30;;;;;;5074689;28;20478;-84
2022/05/19 12:42:49;;;;;;;3.67;1.60;;;27.40;41.90;;;;;;5074047;28;20028;-84
2022/05/19 12:45:25;;;;;;;4.82;1.95;;;27.30;42.10;;;;;;5073238;28;21124;-84
2022/05/19 12:47:56;;;;;;;3.17;1.10;;;27.40;41.20;;;;;;5074320;28;20683;-84
2022/05/19 12:50:25;;;;;;;6.22;1.70;;;27.30;41.80;;;;;;5073361;28;20029;-83
2022/05/19 12:53:04;;;;;;;4.15;1.75;;;27.10;42.30;;;;;;5074567;28;20112;-82
2022/05/19 12:55:44;;;;;;;4.13;1.23;;;27.10;42.10;;;;;;5074013;28;20035;-82
2022/05/19 12:58:42;;;;;;;3.38;1.48;;;27.20;43.10;;;;;;5072926;28;20060;-82
2022/05/19 13:01:17;;;;;;;5.10;1.77;;;27.10;42.90;;;;;;5072225;28;20028;-82
2022/05/19 13:03:47;;;;;;;4.80;1.20;;;27.20;43.30;;;;;;5074250;28;20028;-82
2022/05/19 13:06:13;;;;;;;4.45;1.35;;;27.40;43.80;;;;;;5073311;28;20052;-82
2022/05/19 13:08:43;;;;;;;3.42;1.48;;;27.70;44.00;;;;;;5074123;28;20032;-82
2022/05/19 13:11:18;;;;;;;3.60;1.30;;;27.80;42.00;;;;;;5074200;28;20024;-83
2022/05/19 13:13:54;;;;;;;2.95;1.50;;;27.60;41.80;;;;;;5081644;28;20105;-82
2022/05/19 13:16:25;;;;;;;4.15;1.52;;;27.20;42.90;;;;;;5082671;28;20467;-82
2022/05/19 13:18:53;;;;;;;3.10;1.42;;;27.20;43.00;;;;;;5065228;28;20032;-82
2022/05/19 13:21:25;;;;;;;3.47;1.67;;;27.10;45.60;;;;;;5071815;28;20504;-82
2022/05/19 13:23:51;;;;;;;3.03;1.48;;;26.90;43.10;;;;;;5073847;28;20020;-82
2022/05/19 13:26:26;;;;;;;6.30;1.48;;;26.40;43.30;;;;;;5073825;28;20029;-82
2022/05/19 13:32:02;;;;;;;3.83;1.20;;;26.10;44.40;;;;;;5073772;28;20110;-82
2022/05/19 13:34:38;;;;;;;3.55;1.67;;;26.10;45.10;;;;;;5073873;28;20032;-82